Time;durP1;ratioP1;P1;durP2;ratioP2;P2;SDS_P1;SDS_P2;PMS_P1;PMS_P2;Temp;Humidity;BMP_temperature;BMP_pressure;BME280_temperature;BME280_humidity;BME280_pressure;Samples;Min_cycle;Max_cycle;Signal;HPM_P1;HPM_P2
2022/09/08 00:02:13;;;;;;;7.50;6.55;;;16.50;99.90;;;;;;5028186;28;20128;-88
2022/09/08 00:04:39;;;;;;;8.68;7.20;;;16.40;99.90;;;;;;5015357;28;20439;-87
2022/09/08 00:07:07;;;;;;;10.23;7.93;;;16.30;99.90;;;;;;5031281;28;20061;-88
2022/09/08 00:09:33;;;;;;;9.15;8.25;;;16.40;99.90;;;;;;5029698;28;20116;-89
2022/09/08 00:12:01;;;;;;;9.48;8.23;;;16.50;99.90;;;;;;5023825;28;20030;-89
2022/09/08 00:14:28;;;;;;;12.00;9.68;;;16.40;99.90;;;;;;5001718;28;20049;-88
2022/09/08 00:16:54;;;;;;;11.10;9.77;;;16.50;99.90;;;;;;5014416;28;20783;-89
2022/09/08 00:19:20;;;;;;;10.48;9.40;;;16.50;99.90;;;;;;5029983;28;20049;-89
2022/09/08 00:21:46;;;;;;;13.63;10.82;;;16.70;99.90;;;;;;5028899;28;20376;-89
2022/09/08 00:24:12;;;;;;;13.15;10.63;;;16.60;99.90;;;;;;5030661;28;20096;-89
2022/09/08 00:26:37;;;;;;;13.98;10.43;;;16.70;99.90;;;;;;5030355;28;20046;-88
2022/09/08 00:29:03;;;;;;;13.23;10.38;;;16.80;99.90;;;;;;5033685;28;20044;-88
2022/09/08 00:31:29;;;;;;;11.95;10.80;;;16.70;99.90;;;;;;5032518;28;20022;-89
2022/09/08 00:33:54;;;;;;;15.75;11.57;;;16.80;99.90;;;;;;5021876;28;20047;-89
2022/09/08 00:36:20;;;;;;;13.35;12.15;;;16.70;99.90;;;;;;5030680;28;20045;-89
2022/09/08 00:38:51;;;;;;;13.10;11.90;;;16.70;99.90;;;;;;5030867;28;20080;-87
2022/09/08 00:41:18;;;;;;;13.93;12.50;;;16.70;99.90;;;;;;5033035;28;20053;-87
2022/09/08 00:43:46;;;;;;;24.05;15.57;;;16.70;99.90;;;;;;5028422;28;20038;-90
2022/09/08 00:46:17;;;;;;;15.10;12.88;;;16.60;99.90;;;;;;5028355;28;20072;-89
2022/09/08 00:48:57;;;;;;;17.33;13.93;;;16.60;99.90;;;;;;5026600;28;20570;-88
2022/09/08 00:51:25;;;;;;;16.92;15.15;;;16.60;99.90;;;;;;5029305;28;20284;-87
2022/09/08 00:53:51;;;;;;;14.80;13.40;;;16.70;99.90;;;;;;5028676;28;20119;-86
2022/09/08 00:56:17;;;;;;;16.60;14.10;;;16.50;99.90;;;;;;5028270;28;20045;-89
2022/09/08 00:58:44;;;;;;;16.67;14.90;;;16.60;99.90;;;;;;5028901;28;20565;-88
2022/09/08 01:01:10;;;;;;;16.95;15.38;;;16.70;99.90;;;;;;5031219;28;20034;-88
2022/09/08 01:03:38;;;;;;;20.83;15.80;;;16.70;99.90;;;;;;5023947;28;20396;-87
2022/09/08 01:12:44;;;;;;;23.70;17.67;;;16.60;99.90;;;;;;5023331;28;20412;-89
2022/09/08 01:15:19;;;;;;;19.67;17.63;;;16.60;99.90;;;;;;5032631;28;20060;-89
2022/09/08 01:17:51;;;;;;;20.40;18.42;;;16.70;99.90;;;;;;5028993;28;20061;-90
2022/09/08 01:20:27;;;;;;;23.70;17.73;;;16.80;99.90;;;;;;5019562;28;20115;-89
2022/09/08 01:23:13;;;;;;;18.15;16.25;;;16.60;99.90;;;;;;5032802;28;20595;-89
2022/09/08 01:26:06;;;;;;;18.75;16.25;;;16.70;99.90;;;;;;5034493;28;20128;-91
2022/09/08 01:28:38;;;;;;;18.88;16.88;;;16.70;99.90;;;;;;5022111;28;20084;-89
2022/09/08 01:31:06;;;;;;;19.13;16.90;;;16.60;99.90;;;;;;5035164;28;20033;-91
2022/09/08 01:33:32;;;;;;;20.63;18.08;;;16.60;99.90;;;;;;5036149;28;20056;-89
2022/09/08 01:35:57;;;;;;;20.25;18.13;;;16.60;99.90;;;;;;5037110;28;20508;-89
2022/09/08 01:38:23;;;;;;;22.15;19.85;;;16.80;99.90;;;;;;5034625;28;20530;-88
2022/09/08 01:40:49;;;;;;;20.60;18.60;;;16.70;99.90;;;;;;5035239;28;20056;-89
2022/09/08 01:43:15;;;;;;;23.42;20.92;;;16.80;99.90;;;;;;5034043;28;20045;-87
2022/09/08 01:45:40;;;;;;;21.65;19.42;;;16.80;99.90;;;;;;5030752;28;20556;-88
2022/09/08 01:48:08;;;;;;;23.55;21.30;;;16.90;99.90;;;;;;5015284;28;20129;-91
2022/09/08 01:50:34;;;;;;;24.83;22.38;;;16.80;99.90;;;;;;5044374;23;20045;-89
2022/09/08 01:53:00;;;;;;;23.98;21.77;;;16.80;99.90;;;;;;5054936;28;20037;-88
2022/09/08 01:55:26;;;;;;;24.00;21.30;;;16.90;99.90;;;;;;5055976;28;20076;-89
2022/09/08 01:57:51;;;;;;;24.90;22.38;;;17.00;99.90;;;;;;5057865;28;20070;-87
2022/09/08 02:00:17;;;;;;;25.25;22.70;;;16.80;99.90;;;;;;5049510;28;20037;-90
2022/09/08 02:02:43;;;;;;;26.80;23.30;;;16.90;99.90;;;;;;5037767;28;20107;-87
2022/09/08 02:05:08;;;;;;;27.58;23.08;;;17.00;99.90;;;;;;5051390;28;20037;-89
2022/09/08 02:07:36;;;;;;;24.15;21.38;;;16.90;99.90;;;;;;5060842;28;20376;-79
2022/09/08 02:10:04;;;;;;;26.25;23.52;;;16.90;99.90;;;;;;5062680;28;20045;-88
2022/09/08 02:12:30;;;;;;;26.33;22.95;;;16.90;99.90;;;;;;5067322;28;20038;-88
2022/09/08 02:14:56;;;;;;;24.98;22.52;;;16.80;99.90;;;;;;5061649;28;20052;-91
2022/09/08 02:17:21;;;;;;;25.40;22.80;;;16.90;99.90;;;;;;5056849;28;20044;-89
2022/09/08 02:19:47;;;;;;;25.45;22.98;;;16.90;99.90;;;;;;5054707;28;20128;-87
2022/09/08 02:22:14;;;;;;;24.67;21.98;;;16.80;99.90;;;;;;5051890;28;20041;-90
2022/09/08 02:24:40;;;;;;;28.02;25.25;;;16.70;99.90;;;;;;5050434;28;20511;-87
2022/09/08 02:27:06;;;;;;;25.83;23.27;;;16.70;99.90;;;;;;5053726;28;20132;-88
2022/09/08 02:29:32;;;;;;;27.23;24.50;;;16.70;99.90;;;;;;5050110;28;20076;-87
2022/09/08 02:31:58;;;;;;;27.33;24.20;;;16.70;99.90;;;;;;5028054;28;20045;-85
2022/09/08 02:34:23;;;;;;;25.75;23.15;;;16.70;99.90;;;;;;5046709;28;20043;-87
2022/09/08 02:36:49;;;;;;;29.40;26.40;;;16.70;99.90;;;;;;5052558;28;20392;-87
2022/09/08 02:39:17;;;;;;;27.25;24.35;;;16.60;99.90;;;;;;5046428;28;20044;-89
2022/09/08 02:41:42;;;;;;;29.45;26.40;;;16.80;99.90;;;;;;5047724;28;20509;-88
2022/09/08 02:44:12;;;;;;;27.65;24.88;;;16.90;99.90;;;;;;5050282;28;20079;-87
2022/09/08 02:46:38;;;;;;;28.20;25.42;;;16.60;99.90;;;;;;5053035;28;20118;-89
2022/09/08 02:49:05;;;;;;;29.95;26.58;;;16.80;99.90;;;;;;5051584;28;20040;-89
2022/09/08 02:51:32;;;;;;;29.83;26.33;;;16.70;99.90;;;;;;5045083;28;20586;-88
2022/09/08 02:53:58;;;;;;;28.60;25.70;;;16.70;99.90;;;;;;5050110;28;20052;-88
2022/09/08 02:56:24;;;;;;;30.27;27.20;;;16.80;99.90;;;;;;5053195;28;20045;-88
2022/09/08 02:58:52;;;;;;;32.10;28.75;;;16.80;99.90;;;;;;5052943;28;20081;-87
2022/09/08 03:01:17;;;;;;;31.98;28.45;;;16.90;99.90;;;;;;5040193;28;20112;-89
2022/09/08 03:03:43;;;;;;;35.63;28.45;;;16.90;99.90;;;;;;5050654;28;20115;-87
2022/09/08 03:06:09;;;;;;;32.15;29.00;;;16.90;99.90;;;;;;5050239;28;20080;-88
2022/09/08 03:08:35;;;;;;;32.33;29.10;;;17.00;99.90;;;;;;5030128;28;20052;-88
2022/09/08 03:11:01;;;;;;;32.03;28.77;;;16.90;99.90;;;;;;5047054;28;20036;-88
2022/09/08 03:13:28;;;;;;;35.63;31.95;;;16.90;99.90;;;;;;5051519;28;20048;-86
2022/09/08 03:15:54;;;;;;;32.67;29.30;;;17.00;99.90;;;;;;5047659;28;20083;-88
2022/09/08 03:18:20;;;;;;;34.05;30.65;;;17.10;99.90;;;;;;5050885;28;20051;-89
2022/09/08 03:20:46;;;;;;;34.28;30.63;;;17.10;99.90;;;;;;5048721;28;20136;-88
2022/09/08 03:23:19;;;;;;;33.95;30.60;;;17.00;99.90;;;;;;5048079;28;20048;-89
2022/09/08 03:25:46;;;;;;;34.33;31.00;;;17.10;99.90;;;;;;5044994;28;20049;-89
2022/09/08 03:28:20;;;;;;;31.25;28.10;;;17.10;99.90;;;;;;5046537;28;20574;-88
2022/09/08 03:30:46;;;;;;;32.10;28.90;;;17.10;99.90;;;;;;5043311;28;20072;-89
2022/09/08 03:33:12;;;;;;;37.03;30.55;;;17.10;99.90;;;;;;5034161;28;20065;-89
2022/09/08 03:35:37;;;;;;;34.15;30.88;;;17.30;99.90;;;;;;5050273;28;20036;-89
2022/09/08 03:38:03;;;;;;;33.05;29.65;;;17.10;99.90;;;;;;5050062;28;20037;-88
2022/09/08 03:40:29;;;;;;;32.72;29.42;;;17.10;99.90;;;;;;5022476;28;20077;-86
2022/09/08 03:42:54;;;;;;;33.65;30.02;;;17.30;99.90;;;;;;5047687;28;20056;-88
2022/09/08 03:45:21;;;;;;;34.80;31.35;;;17.20;99.90;;;;;;5059864;28;20058;-88
2022/09/08 03:47:47;;;;;;;32.03;29.05;;;17.10;99.90;;;;;;5051006;28;20041;-89
2022/09/08 03:50:15;;;;;;;33.00;29.80;;;17.10;99.90;;;;;;5067770;28;20074;-88
2022/09/08 03:52:41;;;;;;;32.03;28.92;;;17.20;99.90;;;;;;5053053;28;20053;-89
2022/09/08 03:55:08;;;;;;;33.75;30.42;;;17.20;99.90;;;;;;5033090;28;20037;-88
2022/09/08 03:57:34;;;;;;;36.00;29.77;;;17.20;99.90;;;;;;5051404;28;20110;-89
2022/09/08 04:00:00;;;;;;;36.58;31.65;;;17.10;99.90;;;;;;5048529;28;20056;-88
2022/09/08 04:02:29;;;;;;;34.28;30.13;;;17.20;99.90;;;;;;5048617;28;20037;-90
2022/09/08 04:04:57;;;;;;;33.60;30.17;;;17.30;99.90;;;;;;5050995;28;20053;-89
2022/09/08 04:07:25;;;;;;;39.55;31.45;;;17.40;99.90;;;;;;5050243;28;20064;-89
2022/09/08 04:09:51;;;;;;;32.85;29.55;;;17.40;99.90;;;;;;5045895;28;20091;-87
2022/09/08 04:12:17;;;;;;;34.78;31.25;;;17.20;99.90;;;;;;5048705;28;20479;-91
2022/09/08 04:14:43;;;;;;;33.80;30.23;;;17.40;99.90;;;;;;5050783;28;20466;-90
2022/09/08 04:17:09;;;;;;;34.58;31.08;;;17.40;99.90;;;;;;5047916;28;20415;-93
2022/09/08 04:19:35;;;;;;;33.08;29.58;;;17.40;99.90;;;;;;5046879;28;20045;-84
2022/09/08 04:22:01;;;;;;;36.08;32.58;;;17.30;99.90;;;;;;5055489;28;20052;-92
2022/09/08 04:24:27;;;;;;;38.00;30.95;;;17.40;99.90;;;;;;5052059;28;20037;-91
2022/09/08 04:26:53;;;;;;;34.05;30.67;;;17.40;99.90;;;;;;5050788;28;20036;-90
2022/09/08 04:29:19;;;;;;;32.90;29.52;;;17.20;99.90;;;;;;5049754;28;20043;-91
2022/09/08 04:31:46;;;;;;;37.08;33.28;;;17.40;99.90;;;;;;5049105;28;20128;-92
2022/09/08 04:34:13;;;;;;;35.67;31.92;;;17.30;99.90;;;;;;5049642;28;20045;-91
2022/09/08 04:36:40;;;;;;;33.90;30.48;;;17.30;99.90;;;;;;5040045;28;20056;-91
2022/09/08 04:39:06;;;;;;;34.13;30.58;;;17.20;99.90;;;;;;5051268;28;20044;-91
2022/09/08 04:41:31;;;;;;;36.70;32.72;;;17.30;99.90;;;;;;5051017;28;20048;-92
2022/09/08 04:44:02;;;;;;;34.58;31.10;;;17.00;99.90;;;;;;5056665;28;20052;-91
2022/09/08 04:46:28;;;;;;;34.70;31.25;;;17.20;99.90;;;;;;5030992;28;20041;-91
2022/09/08 04:48:54;;;;;;;32.42;29.45;;;17.10;99.90;;;;;;5032076;28;20036;-90
2022/09/08 04:51:21;;;;;;;36.55;32.83;;;17.00;99.90;;;;;;5044158;28;20195;-88
2022/09/08 04:53:47;;;;;;;37.80;34.08;;;17.00;99.90;;;;;;5050024;28;20052;-90
2022/09/08 04:56:15;;;;;;;35.72;32.13;;;17.00;99.90;;;;;;5054050;28;20098;-90
2022/09/08 04:58:42;;;;;;;35.83;32.05;;;17.00;99.90;;;;;;5055786;28;20041;-90
2022/09/08 05:01:18;;;;;;;36.20;32.35;;;16.90;99.90;;;;;;5057060;28;20041;-91
2022/09/08 05:03:43;;;;;;;38.85;34.85;;;17.00;99.90;;;;;;5056286;28;20052;-90
2022/09/08 05:06:14;;;;;;;40.65;35.35;;;16.80;99.90;;;;;;5053194;28;20049;-91
2022/09/08 05:08:45;;;;;;;36.83;33.33;;;16.70;99.90;;;;;;5049264;28;20052;-91
2022/09/08 05:11:11;;;;;;;38.58;34.78;;;16.90;99.90;;;;;;5049783;28;20056;-90
2022/09/08 05:13:37;;;;;;;38.10;34.25;;;16.70;99.90;;;;;;5050328;28;20053;-89
2022/09/08 05:16:08;;;;;;;41.30;36.92;;;16.80;99.90;;;;;;5050186;28;20128;-90
2022/09/08 05:18:35;;;;;;;45.33;35.10;;;16.90;99.90;;;;;;5047110;28;20092;-75
2022/09/08 05:21:01;;;;;;;40.03;35.85;;;16.80;99.90;;;;;;5046069;28;20434;-88
2022/09/08 05:23:27;;;;;;;38.88;35.08;;;16.80;99.90;;;;;;5049012;28;20052;-89
2022/09/08 05:25:59;;;;;;;41.22;36.95;;;16.80;99.90;;;;;;5049531;28;20053;-89
2022/09/08 05:28:26;;;;;;;37.65;34.05;;;16.90;99.90;;;;;;5051043;28;20384;-89
2022/09/08 05:30:52;;;;;;;40.65;36.35;;;17.10;99.90;;;;;;5047306;28;20037;-90
2022/09/08 05:33:19;;;;;;;39.60;35.53;;;17.10;99.90;;;;;;5032265;28;20048;-88
2022/09/08 05:35:45;;;;;;;39.63;35.45;;;17.00;99.90;;;;;;5041706;28;20037;-91
2022/09/08 05:38:11;;;;;;;40.03;34.67;;;17.10;99.90;;;;;;5041245;28;20424;-89
2022/09/08 05:40:36;;;;;;;37.63;33.72;;;17.10;99.90;;;;;;5051781;28;20041;-89
2022/09/08 05:43:03;;;;;;;39.55;35.13;;;17.00;99.90;;;;;;5053109;28;20045;-90
2022/09/08 05:45:28;;;;;;;39.45;35.58;;;17.00;99.90;;;;;;5045710;28;20121;-89
2022/09/08 05:47:54;;;;;;;40.88;37.00;;;16.90;99.90;;;;;;5033441;28;20262;-90
2022/09/08 05:50:20;;;;;;;39.08;35.20;;;16.90;99.90;;;;;;5050182;28;20114;-89
2022/09/08 05:52:46;;;;;;;40.20;36.25;;;17.10;99.90;;;;;;5051387;28;20388;-89
2022/09/08 05:55:11;;;;;;;38.08;34.25;;;17.00;99.90;;;;;;5052652;28;20080;-91
2022/09/08 05:57:39;;;;;;;39.75;35.85;;;16.90;99.90;;;;;;5051718;28;20095;-90
2022/09/08 06:00:07;;;;;;;43.28;36.70;;;17.10;99.90;;;;;;5052154;28;20045;-89
2022/09/08 06:02:33;;;;;;;41.88;37.70;;;17.00;99.90;;;;;;5047890;28;20141;-90
2022/09/08 06:04:59;;;;;;;40.60;36.53;;;17.00;99.90;;;;;;5051304;28;20100;-90
2022/09/08 06:07:25;;;;;;;43.00;37.97;;;16.90;99.90;;;;;;5050060;28;20461;-89
2022/09/08 06:09:51;;;;;;;43.03;38.42;;;17.20;99.90;;;;;;5042143;28;20049;-89
2022/09/08 06:12:17;;;;;;;44.53;39.88;;;17.20;99.90;;;;;;5040248;28;20037;-92
2022/09/08 06:14:42;;;;;;;47.47;41.75;;;16.90;99.90;;;;;;5033419;28;20038;-92
2022/09/08 06:17:09;;;;;;;45.78;40.88;;;17.00;99.90;;;;;;5029363;28;20055;-89
2022/09/08 06:19:35;;;;;;;50.25;41.50;;;16.80;99.90;;;;;;5049489;28;20124;-84
2022/09/08 06:22:01;;;;;;;50.08;40.83;;;17.00;99.90;;;;;;5055072;28;20081;-91
2022/09/08 06:24:26;;;;;;;53.42;43.42;;;16.60;99.90;;;;;;5055838;28;20044;-93
2022/09/08 06:27:32;;;;;;;55.17;46.65;;;16.60;99.90;;;;;;5054498;28;20055;-92
2022/09/08 06:30:11;;;;;;;51.97;42.95;;;16.70;99.90;;;;;;5041448;28;20041;-93
2022/09/08 06:32:40;;;;;;;67.50;48.65;;;16.80;99.90;;;;;;5045953;28;20075;-93
2022/09/08 06:35:11;;;;;;;69.53;51.00;;;16.40;99.90;;;;;;5058351;28;20094;-93
2022/09/08 06:37:59;;;;;;;58.33;47.25;;;16.80;99.90;;;;;;5057460;28;20067;-94
2022/09/08 06:40:38;;;;;;;58.33;48.08;;;16.40;99.90;;;;;;5045193;28;20057;-87
2022/09/08 06:43:11;;;;;;;59.80;48.72;;;16.90;99.90;;;;;;5031630;28;20053;-86
2022/09/08 06:45:43;;;;;;;59.15;47.47;;;16.70;99.90;;;;;;5037993;28;20049;-87
2022/09/08 06:48:19;;;;;;;63.03;51.33;;;16.80;99.90;;;;;;5068680;28;20044;-86
2022/09/08 06:51:15;;;;;;;65.38;51.00;;;16.60;99.90;;;;;;5059572;28;20057;-93
2022/09/08 06:54:01;;;;;;;70.28;47.35;;;16.70;99.90;;;;;;5066901;28;20400;-79
2022/09/08 06:56:51;;;;;;;52.13;41.00;;;16.90;99.90;;;;;;5044365;28;20053;-83
2022/09/08 06:59:46;;;;;;;66.73;48.93;;;16.80;99.90;;;;;;5043953;28;20045;-80
2022/09/08 07:02:40;;;;;;;51.65;39.97;;;17.10;99.90;;;;;;5026166;28;20092;-78
2022/09/08 07:05:31;;;;;;;56.53;41.83;;;16.80;99.90;;;;;;5020246;28;20472;-79
2022/09/08 07:08:15;;;;;;;51.42;41.40;;;16.90;99.90;;;;;;5044859;28;20060;-79
2022/09/08 07:11:05;;;;;;;63.70;47.42;;;16.60;99.90;;;;;;5041392;28;20518;-80
2022/09/08 07:13:34;;;;;;;63.63;44.03;;;16.80;99.90;;;;;;5045678;28;20057;-79
2022/09/08 07:16:03;;;;;;;59.22;45.22;;;17.00;99.90;;;;;;5046196;28;20052;-79
2022/09/08 07:19:01;;;;;;;39.78;33.92;;;17.10;99.90;;;;;;5042565;28;20041;-80
2022/09/08 07:21:45;;;;;;;41.83;36.33;;;16.50;99.90;;;;;;5035897;28;20136;-80
2022/09/08 07:24:15;;;;;;;38.42;31.48;;;16.40;99.90;;;;;;5044614;28;20054;-79
2022/09/08 07:26:55;;;;;;;43.97;33.88;;;16.50;99.90;;;;;;5045451;28;20041;-80
2022/09/08 07:29:46;;;;;;;39.15;32.42;;;16.50;99.90;;;;;;5041397;28;20052;-79
2022/09/08 07:32:17;;;;;;;45.13;36.38;;;16.90;99.90;;;;;;5043270;28;20057;-80
2022/09/08 07:35:00;;;;;;;48.15;40.80;;;16.50;99.90;;;;;;5044640;28;20645;-80
2022/09/08 07:37:33;;;;;;;49.95;39.65;;;16.90;99.90;;;;;;5041754;28;20045;-79
2022/09/08 07:40:16;;;;;;;50.40;38.75;;;16.90;99.90;;;;;;5044327;28;20063;-79
2022/09/08 07:42:43;;;;;;;47.20;37.83;;;17.10;99.90;;;;;;5042307;28;20037;-80
2022/09/08 07:45:12;;;;;;;48.58;37.67;;;17.00;99.90;;;;;;5042943;28;20725;-79
2022/09/08 07:47:57;;;;;;;47.13;39.40;;;16.80;99.90;;;;;;5044530;28;20091;-79
2022/09/08 07:50:56;;;;;;;47.08;38.65;;;17.10;99.90;;;;;;5039735;28;20450;-78
2022/09/08 07:53:49;;;;;;;47.10;40.47;;;17.10;99.90;;;;;;5048449;28;20051;-83
2022/09/08 07:56:50;;;;;;;59.58;42.13;;;16.60;99.90;;;;;;5028344;28;20127;-85
2022/09/08 07:59:29;;;;;;;52.60;39.92;;;16.70;99.90;;;;;;5039207;28;20052;-85
2022/09/08 08:02:18;;;;;;;54.80;42.88;;;16.90;99.90;;;;;;5042645;28;20102;-84
2022/09/08 08:05:05;;;;;;;52.13;40.25;;;17.00;99.90;;;;;;5034688;28;20450;-85
2022/09/08 08:07:42;;;;;;;61.13;45.53;;;16.90;99.90;;;;;;5044813;28;20127;-85
2022/09/08 08:10:09;;;;;;;64.15;42.50;;;17.10;99.90;;;;;;5047333;28;20049;-85
2022/09/08 08:12:44;;;;;;;53.17;42.08;;;17.20;99.90;;;;;;5047963;28;20056;-83
2022/09/08 08:15:42;;;;;;;64.70;44.15;;;16.60;99.90;;;;;;5038895;28;20064;-86
2022/09/08 08:18:19;;;;;;;70.60;41.60;;;16.60;99.90;;;;;;5014597;28;20130;-83
2022/09/08 08:20:53;;;;;;;66.88;41.35;;;16.60;99.90;;;;;;5046500;28;20052;-85
2022/09/08 08:23:39;;;;;;;51.50;39.70;;;16.50;99.90;;;;;;5047178;28;20037;-79
2022/09/08 08:26:34;;;;;;;41.53;31.30;;;16.50;99.90;;;;;;5041972;28;20596;-78
2022/09/08 08:29:19;;;;;;;55.35;38.00;;;17.00;99.90;;;;;;5014749;28;20085;-78
2022/09/08 08:32:18;;;;;;;40.88;32.45;;;16.60;99.90;;;;;;5023366;28;20590;-77
2022/09/08 08:34:59;;;;;;;28.73;22.63;;;16.80;99.90;;;;;;5019831;28;20049;-78
2022/09/08 08:37:31;;;;;;;40.03;28.63;;;16.70;99.90;;;;;;5043780;28;20056;-77
2022/09/08 08:39:58;;;;;;;39.15;31.20;;;17.10;99.90;;;;;;5041009;28;20155;-77
2022/09/08 08:42:45;;;;;;;45.50;34.05;;;17.00;99.90;;;;;;5044262;28;20056;-76
2022/09/08 08:45:11;;;;;;;46.78;36.25;;;17.30;99.90;;;;;;5033817;28;20040;-76
2022/09/08 08:47:47;;;;;;;56.25;39.45;;;17.20;99.90;;;;;;5034534;28;20122;-73
2022/09/08 08:50:19;;;;;;;23.45;19.02;;;17.30;99.90;;;;;;5043889;28;20458;-75
2022/09/08 08:52:59;;;;;;;8.40;5.07;;;16.80;99.90;;;;;;5041763;28;20080;-77
2022/09/08 08:55:50;;;;;;;3.33;1.92;;;16.60;99.90;;;;;;5024281;28;20436;-75
2022/09/08 08:58:45;;;;;;;3.58;1.90;;;15.80;99.90;;;;;;5043122;28;20049;-74
2022/09/08 09:01:39;;;;;;;6.32;1.15;;;15.90;99.90;;;;;;5024389;28;20135;-75
2022/09/08 09:04:23;;;;;;;4.57;1.55;;;15.90;99.90;;;;;;5028651;28;20044;-72
2022/09/08 09:07:18;;;;;;;3.22;1.38;;;15.40;99.90;;;;;;5036699;28;20567;-75
2022/09/08 09:10:01;;;;;;;2.55;1.42;;;15.90;99.90;;;;;;5036909;28;20479;-74
2022/09/08 09:12:33;;;;;;;2.67;1.50;;;15.80;99.90;;;;;;5047453;28;20494;-74
2022/09/08 09:15:31;;;;;;;3.33;1.30;;;15.50;99.90;;;;;;5047294;28;20561;-77
2022/09/08 09:18:48;;;;;;;2.00;1.10;;;15.90;99.90;;;;;;5042250;28;20071;-74
2022/09/08 09:21:37;;;;;;;2.95;1.55;;;15.70;99.90;;;;;;5017324;28;20403;-75
2022/09/08 09:24:14;;;;;;;2.35;1.58;;;15.80;99.90;;;;;;5041287;28;20147;-76
2022/09/08 09:26:47;;;;;;;2.53;1.35;;;16.10;99.90;;;;;;5039096;28;20080;-75
2022/09/08 09:29:18;;;;;;;1.20;1.10;;;15.80;99.90;;;;;;5041082;28;20051;-75
2022/09/08 09:32:04;;;;;;;4.47;1.70;;;15.60;99.90;;;;;;5057985;28;20052;-76
2022/09/08 09:34:53;;;;;;;2.33;1.60;;;15.80;99.90;;;;;;5044087;28;20069;-76
2022/09/08 09:38:00;;;;;;;3.63;1.33;;;15.80;99.90;;;;;;5045924;28;20052;-77
2022/09/08 09:40:58;;;;;;;1.35;1.15;;;15.80;99.90;;;;;;5038357;28;20555;-75
2022/09/08 09:43:36;;;;;;;3.13;1.75;;;15.60;99.90;;;;;;5038949;28;20037;-76
2022/09/08 09:46:08;;;;;;;3.92;2.17;;;16.20;99.90;;;;;;5042375;28;20392;-76
2022/09/08 09:49:11;;;;;;;3.47;2.00;;;15.80;99.90;;;;;;5029363;28;20044;-76
2022/09/08 09:52:10;;;;;;;2.58;2.38;;;16.00;99.90;;;;;;5044281;28;20442;-77
2022/09/08 09:55:01;;;;;;;3.22;2.60;;;15.90;99.90;;;;;;5043280;28;20092;-76
2022/09/08 09:58:10;;;;;;;6.68;3.38;;;16.20;99.90;;;;;;5046293;28;20527;-76
2022/09/08 10:01:15;;;;;;;4.68;3.22;;;15.80;99.90;;;;;;5043328;28;20052;-77
2022/09/08 10:04:13;;;;;;;8.98;5.30;;;15.80;99.90;;;;;;5039278;28;20061;-76
2022/09/08 10:07:23;;;;;;;4.82;4.25;;;16.40;99.90;;;;;;5046689;28;20057;-76
2022/09/08 10:10:01;;;;;;;9.02;5.03;;;16.10;99.90;;;;;;5036894;28;20507;-76
2022/09/08 10:12:50;;;;;;;5.47;4.70;;;16.50;99.90;;;;;;5059974;28;20048;-75
2022/09/08 10:15:33;;;;;;;11.35;5.53;;;16.20;99.90;;;;;;5045198;28;20123;-75
2022/09/08 10:18:15;;;;;;;12.45;6.88;;;16.30;99.90;;;;;;5044948;28;20496;-74
2022/09/08 10:20:41;;;;;;;6.80;5.53;;;16.60;99.90;;;;;;5047093;28;20120;-75
2022/09/08 10:23:40;;;;;;;8.55;6.80;;;16.70;99.90;;;;;;5047521;28;20128;-73
2022/09/08 10:26:33;;;;;;;7.97;6.65;;;16.60;99.90;;;;;;5029040;28;20048;-74
2022/09/08 10:29:17;;;;;;;9.32;7.30;;;16.60;99.90;;;;;;5044727;28;20123;-77
2022/09/08 10:32:18;;;;;;;13.85;7.18;;;17.00;99.90;;;;;;5032355;28;20056;-75
2022/09/08 10:34:57;;;;;;;8.43;6.05;;;17.00;99.90;;;;;;5026019;28;20109;-76
2022/09/08 10:37:57;;;;;;;6.55;4.60;;;16.90;99.90;;;;;;5047858;28;20063;-77
2022/09/08 10:40:52;;;;;;;5.43;4.45;;;16.80;99.90;;;;;;5038693;28;20049;-76
2022/09/08 10:44:05;;;;;;;6.65;3.97;;;16.40;99.90;;;;;;5047641;28;20080;-76
2022/09/08 10:47:11;;;;;;;5.43;3.03;;;16.60;99.90;;;;;;4991467;28;20053;-76
2022/09/08 10:50:10;;;;;;;4.38;2.47;;;16.80;99.90;;;;;;5014508;28;20053;-75
2022/09/08 10:53:07;;;;;;;5.18;2.78;;;16.80;99.90;;;;;;5046591;28;20067;-75
2022/09/08 10:55:53;;;;;;;4.45;3.08;;;16.40;99.90;;;;;;5045134;28;20042;-75
2022/09/08 10:59:00;;;;;;;4.03;2.45;;;16.80;99.90;;;;;;5037581;28;20075;-75
2022/09/08 11:02:08;;;;;;;7.60;3.63;;;16.50;99.90;;;;;;5026897;28;20053;-76
2022/09/08 11:05:11;;;;;;;6.75;3.47;;;16.40;99.90;;;;;;5039355;28;20499;-76
2022/09/08 11:08:14;;;;;;;9.77;4.38;;;16.60;99.90;;;;;;5043764;28;20179;-75
2022/09/08 11:10:51;;;;;;;5.30;2.65;;;16.50;99.90;;;;;;5018744;28;20041;-76
2022/09/08 11:13:34;;;;;;;4.63;3.35;;;16.60;99.90;;;;;;5043332;28;20053;-75
2022/09/08 11:16:21;;;;;;;6.22;3.28;;;16.90;99.90;;;;;;5040894;28;20098;-75
2022/09/08 11:19:21;;;;;;;7.05;3.80;;;17.00;99.90;;;;;;5044777;28;20045;-76
2022/09/08 11:22:05;;;;;;;7.03;3.03;;;16.90;99.90;;;;;;5046052;28;20518;-75
2022/09/08 11:24:35;;;;;;;4.97;3.83;;;17.00;99.90;;;;;;5044514;28;20041;-75
2022/09/08 11:27:05;;;;;;;8.85;4.10;;;17.00;99.90;;;;;;5027248;28;20302;-76
2022/09/08 11:29:36;;;;;;;6.50;3.88;;;16.90;99.90;;;;;;5045470;28;20294;-75
2022/09/08 11:32:20;;;;;;;5.65;3.78;;;17.30;99.90;;;;;;5043865;28;20044;-76
2022/09/08 11:34:57;;;;;;;4.90;3.55;;;17.20;99.90;;;;;;5041637;28;20063;-76
2022/09/08 11:37:38;;;;;;;5.53;3.55;;;16.70;99.90;;;;;;5027315;28;20592;-75
2022/09/08 11:40:26;;;;;;;6.88;3.95;;;17.20;99.90;;;;;;5009419;28;20064;-75
2022/09/08 11:43:07;;;;;;;5.88;4.43;;;17.20;99.90;;;;;;5032106;28;21295;-77
2022/09/08 11:45:51;;;;;;;7.47;4.13;;;17.20;99.90;;;;;;5019946;28;20045;-78
2022/09/08 11:48:46;;;;;;;7.28;3.50;;;17.20;99.90;;;;;;5026430;28;20057;-78
2022/09/08 11:51:40;;;;;;;7.50;4.45;;;17.00;99.90;;;;;;5038116;28;20524;-78
2022/09/08 11:54:36;;;;;;;7.97;4.10;;;17.20;99.90;;;;;;5042562;28;20102;-77
2022/09/08 11:57:32;;;;;;;9.02;5.05;;;16.90;99.90;;;;;;5028770;28;20515;-79
2022/09/08 12:00:07;;;;;;;6.97;4.07;;;17.40;99.90;;;;;;5030540;28;21084;-78
2022/09/08 12:03:13;;;;;;;7.53;4.20;;;17.00;99.90;;;;;;5040582;28;20041;-78
2022/09/08 12:05:57;;;;;;;7.40;4.00;;;16.90;99.90;;;;;;5039850;28;20499;-78
2022/09/08 12:08:46;;;;;;;8.43;4.53;;;17.50;99.90;;;;;;5036200;28;20041;-78
2022/09/08 12:11:46;;;;;;;5.82;3.97;;;17.30;99.90;;;;;;5041641;28;20136;-78
2022/09/08 12:14:18;;;;;;;9.98;4.43;;;17.50;99.90;;;;;;5039708;28;20053;-78
2022/09/08 12:16:53;;;;;;;7.15;5.15;;;17.40;99.90;;;;;;5026584;28;20430;-78
2022/09/08 12:19:59;;;;;;;6.75;5.00;;;17.00;99.90;;;;;;5041199;28;20049;-78
2022/09/08 12:22:45;;;;;;;5.88;4.82;;;17.10;99.90;;;;;;5041043;28;20053;-78
2022/09/08 12:25:26;;;;;;;12.23;5.22;;;16.90;99.90;;;;;;5043160;28;20511;-79
2022/09/08 12:27:57;;;;;;;7.88;5.38;;;17.20;99.90;;;;;;5024295;28;20033;-78
2022/09/08 12:30:42;;;;;;;9.95;5.10;;;17.30;99.90;;;;;;5024588;28;20392;-78
2022/09/08 12:33:32;;;;;;;7.57;6.03;;;16.90;99.90;;;;;;5036144;28;20096;-78
2022/09/08 12:36:19;;;;;;;6.18;5.55;;;17.10;99.90;;;;;;5043112;28;20049;-77
2022/09/08 12:38:53;;;;;;;5.68;4.95;;;17.10;99.90;;;;;;5041244;28;20519;-77
2022/09/08 12:41:37;;;;;;;8.70;5.70;;;17.30;99.90;;;;;;5024449;28;20268;-77
2022/09/08 12:44:31;;;;;;;10.47;6.10;;;17.10;99.90;;;;;;5038685;28;20048;-79
2022/09/08 12:47:12;;;;;;;7.93;5.40;;;17.20;99.90;;;;;;5041110;28;20132;-77
2022/09/08 12:49:40;;;;;;;9.40;6.00;;;17.20;99.90;;;;;;5042663;28;20052;-78
2022/09/08 12:52:22;;;;;;;6.00;5.45;;;17.50;99.90;;;;;;5042057;28;20133;-79
2022/09/08 12:55:16;;;;;;;7.60;6.53;;;17.20;99.90;;;;;;5043563;28;20049;-80
2022/09/08 12:57:54;;;;;;;7.68;5.97;;;17.30;99.90;;;;;;5040415;28;20076;-77
2022/09/08 13:00:28;;;;;;;10.10;7.78;;;17.30;99.90;;;;;;5040836;28;20079;-77
2022/09/08 13:03:04;;;;;;;8.48;7.68;;;17.30;99.90;;;;;;5037969;28;20589;-77
2022/09/08 13:05:51;;;;;;;9.50;8.60;;;17.70;99.90;;;;;;5028671;28;20128;-76
2022/09/08 13:08:47;;;;;;;10.07;8.55;;;17.50;99.90;;;;;;5040080;28;20041;-77
2022/09/08 13:11:16;;;;;;;8.07;7.28;;;17.30;99.90;;;;;;5043090;28;20495;-76
2022/09/08 13:13:43;;;;;;;31.15;9.98;;;17.30;99.90;;;;;;5043280;28;20063;-77
2022/09/08 13:16:20;;;;;;;9.45;7.85;;;17.40;99.90;;;;;;5041532;28;20124;-78
2022/09/08 13:19:07;;;;;;;10.88;9.07;;;17.60;99.90;;;;;;5042983;28;20043;-77
2022/09/08 13:21:38;;;;;;;16.63;10.20;;;17.60;99.90;;;;;;5041137;28;20131;-78
2022/09/08 13:24:18;;;;;;;10.00;9.00;;;17.60;99.90;;;;;;5044336;28;20051;-78
2022/09/08 13:26:53;;;;;;;;;;;17.80;99.90;;;;;;5042438;28;20051;-77